Boulder Muni, Boulder, CO, CO

8:28 AM MST on November 17, 2019 (GMT -0700)
Boulder Muni, Boulder, CO

Weather History for KBDU - August, 2019

Change the Weather History Date:

Monday, August 19, 2019

  Actual Average Record
Temperature  
Mean Temperature 79 °F -  
Max Temperature 96 °F - 96 °F (2019)
Min Temperature 62 °F - 46 °F (2015)
Degree Days  
Heating Degree Days 0    
Month to date heating degree days  
Cooling Degree Days 14    
Month to date cooling degree days  
Growing Degree Days 29 (Base 50)    
Moisture  
Dew Point 38 °F    
Average Humidity 24    
Maximum Humidity 53    
Minimum Humidity 10    
Precipitation  
Precipitation 0.00 in - 0.19 in (2015)
Snow  
Snow 0.00 in - - ()
Snow Depth -    
Sea Level Pressure  
Sea Level Pressure 30.08 in    
Wind  
Wind Speed 3 mph (East)    
Max Wind Speed 8 mph    
Max Gust Speed -    
Visibility 10 miles    
Events      
T = Trace of Precipitation, MM = Missing Value Source: NWS Daily Summary

Daily Weather History Graph

Daily Weather History Graph

Search for Another Location

Airport or City:

Astronomy

Aug. 19, 2019 Rise Set
Actual Time 6:16 AM MDT 7:52 PM MDT
Civil Twilight 5:47 AM MDT 8:20 PM MDT
Nautical Twilight 5:12 AM MDT 8:55 PM MDT
Astronomical Twilight 4:35 AM MDT 9:32 PM MDT
Moon 10:14 PM MDT (8/19) 9:59 AM MDT (8/19)
Length of Visible Light 14h 33m
Length of Day
13h 36m
Waning Gibbous, 85% of the Moon is Illuminated
Aug 19
Waning Gibbous
Aug 23
Last Quarter
Aug 30
New
Sep 5
First Quarter
Sep 13
Full

Hourly Weather History & Observations

Time (MDT) Temp. Dew Point Humidity Pressure Visibility Wind Dir Wind Speed Gust Speed Precip Events Conditions
12:12 AM 69.8 °F 51.8 °F 53% 30.05 in 10.0 mi Calm Calm - N/A   Clear
12:30 AM 71.6 °F 42.8 °F 35% 30.05 in 10.0 mi WSW 5.8 mph - N/A   Clear
12:48 AM 71.6 °F 41.0 °F 33% 30.05 in 10.0 mi West 4.6 mph - N/A   Clear
1:12 AM 71.6 °F 37.4 °F 29% 30.04 in 10.0 mi WSW 4.6 mph - N/A   Clear
1:30 AM 69.8 °F 41.0 °F 35% 30.04 in 10.0 mi West 3.5 mph - N/A   Clear
1:48 AM 66.2 °F 44.6 °F 46% 30.04 in 10.0 mi Calm Calm - N/A   Clear
2:12 AM 64.4 °F 42.8 °F 45% 30.04 in 10.0 mi Calm Calm - N/A   Clear
2:30 AM 68.0 °F 37.4 °F 33% 30.04 in 10.0 mi Calm Calm - N/A   Clear
2:48 AM 69.8 °F 35.6 °F 28% 30.04 in 10.0 mi Calm Calm - N/A   Clear
3:12 AM 64.4 °F 37.4 °F 37% 30.04 in 10.0 mi Calm Calm - N/A   Clear
3:30 AM 69.8 °F 35.6 °F 28% 30.05 in 10.0 mi Calm Calm - N/A   Clear
3:48 AM 68.0 °F 37.4 °F 33% 30.05 in 10.0 mi Calm Calm - N/A   Clear
4:12 AM 64.4 °F 37.4 °F 37% 30.06 in 10.0 mi ENE 4.6 mph - N/A   Clear
4:30 AM 64.4 °F 41.0 °F 42% 30.07 in 10.0 mi ENE 3.5 mph - N/A   Clear
4:48 AM 64.4 °F 41.0 °F 42% 30.07 in 10.0 mi Calm Calm - N/A   Clear
5:12 AM 62.6 °F 44.6 °F 52% 30.08 in 10.0 mi SSW 3.5 mph - N/A   Clear
5:30 AM 64.4 °F 41.0 °F 42% 30.08 in 10.0 mi WSW 3.5 mph - N/A   Clear
5:48 AM 64.4 °F 41.0 °F 42% 30.08 in 10.0 mi South 3.5 mph - N/A   Clear
6:08 AM 62.6 °F 42.8 °F 48% 30.09 in 10.0 mi WSW 6.9 mph - N/A   Clear
6:32 AM 64.4 °F 35.6 °F 34% 30.09 in 10.0 mi WSW 4.6 mph - N/A   Clear
6:50 AM 68.0 °F 32.0 °F 26% 30.09 in 10.0 mi SSW 6.9 mph - N/A   Clear
7:12 AM 71.6 °F 32.0 °F 23% 30.10 in 10.0 mi SW 5.8 mph - N/A   Clear
7:30 AM 71.6 °F 33.8 °F 25% 30.10 in 10.0 mi NNW 3.5 mph - N/A   Clear
7:48 AM 71.6 °F 33.8 °F 25% 30.10 in 10.0 mi Calm Calm - N/A   Clear
8:12 AM 73.4 °F 37.4 °F 27% 30.11 in 10.0 mi Calm Calm - N/A   Clear
8:29 AM 77.0 °F 41.0 °F 28% 30.11 in 10.0 mi Calm Calm - N/A   Clear
8:53 AM 77.0 °F 41.0 °F 28% 30.11 in 10.0 mi Calm Calm - N/A   Clear
9:13 AM 80.6 °F 42.8 °F 26% 30.11 in 10.0 mi Calm Calm - N/A   Clear
9:31 AM 82.4 °F 37.4 °F 20% 30.12 in 10.0 mi Calm Calm - N/A   Clear
9:49 AM 86.0 °F 41.0 °F 20% 30.12 in 10.0 mi Calm Calm - N/A   Clear
10:12 AM 86.0 °F 42.8 °F 22% 30.12 in 10.0 mi Calm Calm - N/A   Clear
10:30 AM 87.8 °F 37.4 °F 17% 30.12 in 10.0 mi ESE 3.5 mph - N/A   Clear
10:48 AM 89.6 °F 35.6 °F 15% 30.12 in 10.0 mi East 3.5 mph - N/A   Clear
11:11 AM 91.4 °F 35.6 °F 14% 30.12 in 10.0 mi East 4.6 mph - N/A   Clear
11:29 AM 91.4 °F 33.8 °F 13% 30.12 in 7.0 mi East 3.5 mph - N/A   Clear
11:53 AM 91.4 °F 33.8 °F 13% 30.11 in 10.0 mi NNE 6.9 mph - N/A   Clear
12:12 PM 91.4 °F 33.8 °F 13% 30.11 in 10.0 mi East 4.6 mph - N/A   Clear
12:30 PM 95.0 °F 33.8 °F 12% 30.10 in 10.0 mi ESE 4.6 mph - N/A   Clear
12:48 PM 95.0 °F 33.8 °F 12% 30.10 in 10.0 mi East 3.5 mph - N/A   Clear
1:12 PM 95.0 °F 33.8 °F 12% 30.09 in 10.0 mi East 5.8 mph - N/A   Clear
1:30 PM 96.8 °F 33.8 °F 11% 30.08 in 7.0 mi East 3.5 mph - N/A   Clear
1:48 PM 95.0 °F 33.8 °F 12% 30.08 in 10.0 mi East 5.8 mph - N/A   Clear
2:12 PM 96.8 °F 33.8 °F 11% 30.07 in 10.0 mi East 8.1 mph - N/A   Clear
2:30 PM 96.8 °F 33.8 °F 11% 30.07 in 10.0 mi ENE 6.9 mph - N/A   Clear
2:48 PM 96.8 °F 32.0 °F 10% 30.07 in 10.0 mi Calm Calm - N/A   Clear
3:12 PM 96.8 °F 32.0 °F 10% 30.06 in 10.0 mi Calm Calm - N/A   Clear
3:30 PM 95.0 °F 32.0 °F 11% 30.06 in 10.0 mi ENE 5.8 mph - N/A   Clear
3:48 PM 95.0 °F 32.0 °F 11% 30.06 in 10.0 mi ENE 3.5 mph - N/A   Clear
4:12 PM 95.0 °F 33.8 °F 12% 30.06 in 10.0 mi Calm Calm - N/A   Clear
4:30 PM 95.0 °F 32.0 °F 11% 30.05 in 10.0 mi SSW 4.6 mph - N/A   Clear
4:48 PM 95.0 °F 32.0 °F 11% 30.05 in 10.0 mi Calm Calm - N/A   Clear
5:12 PM 93.2 °F 33.8 °F 12% 30.05 in 10.0 mi NE 3.5 mph - N/A   Clear
5:30 PM 91.4 °F 33.8 °F 13% 30.05 in 10.0 mi ENE 5.8 mph - N/A   Clear
5:48 PM 91.4 °F 35.6 °F 14% 30.05 in 10.0 mi NE 4.6 mph - N/A   Clear
6:08 PM 91.4 °F 32.0 °F 12% 30.05 in 10.0 mi Calm Calm - N/A   Clear
6:50 PM 87.8 °F 35.6 °F 16% 30.05 in 10.0 mi ENE 4.6 mph - N/A   Clear
7:12 PM 86.0 °F 37.4 °F 18% 30.05 in 10.0 mi Calm Calm - N/A   Clear
7:30 PM 86.0 °F 39.2 °F 19% 30.05 in 10.0 mi WSW 3.5 mph - N/A   Clear
7:48 PM 84.2 °F 42.8 °F 23% 30.06 in 10.0 mi Calm Calm - N/A   Clear
8:12 PM 82.4 °F 41.0 °F 23% 30.06 in 10.0 mi WSW 3.5 mph - N/A   Clear
8:30 PM 82.4 °F 42.8 °F 25% 30.07 in 10.0 mi WSW 3.5 mph - N/A   Clear
8:48 PM 80.6 °F 42.8 °F 26% 30.07 in 10.0 mi Calm Calm - N/A   Clear
9:12 PM 80.6 °F 39.2 °F 23% 30.08 in 10.0 mi Calm Calm - N/A   Clear
9:30 PM 80.6 °F 35.6 °F 20% 30.08 in 10.0 mi Calm Calm - N/A   Clear
9:48 PM 80.6 °F 35.6 °F 20% 30.09 in 10.0 mi Calm Calm - N/A   Clear
10:12 PM 77.0 °F 44.6 °F 32% 30.10 in 10.0 mi Calm Calm - N/A   Clear
10:30 PM 75.2 °F 41.0 °F 29% 30.10 in 10.0 mi WNW 8.1 mph - N/A   Clear
10:48 PM 77.0 °F 37.4 °F 24% 30.11 in 10.0 mi Calm Calm - N/A   Clear
11:12 PM 77.0 °F 37.4 °F 24% 30.11 in 10.0 mi NNW 5.8 mph - N/A   Clear
11:30 PM 73.4 °F 41.0 °F 31% 30.11 in 10.0 mi WNW 4.6 mph - N/A   Clear
11:53 PM 73.4 °F 39.2 °F 29% 30.11 in 10.0 mi West 3.5 mph - N/A   Clear